Terminal Aerodrome Forecast
Issued by NWS Twin Cities, MN

Home | Current Version | Previous Version | Graphics & Text | Print | Product List | Glossary On
Versions: 1 2 3 4 5 6 7 8 9 10 11 12 13 14 15 16 17
157
FTUS43 KMPX 211540 AAA
TAFEAU
TAF AMD
KEAU 211540Z 2116/2212 29017G23KT P6SM SCT030 BKN040
     FM211800 31015G22KT P6SM BKN035 OVC050
     FM212300 31014KT P6SM SKC
     FM220200 31009KT P6SM SKC=

USA.gov is the U.S. government's official web portal to all federal, state and local government web resources and services.